Clear, Alaska
Current Conditions -  °F | °C
As of 5:53 PM on Wednesday 26 Nov 2014 (Local Time) from PANN Reporting Station
Overcast Overcast  
Wind Chill:   Ceiling: 300
Heat Index:   Visibility: 9mi
Dew Point: -5°   Wind: 0mph
Humidity: 79%   Direction: NA
Pressure: 30.49"   Gusts: NA
Location:  64.34°N, 149.16°W
Report Text: PANN 270253Z AUTO 00000KT 9SM OVC003 M18/M21 A3049 RMK AO2 SLP339 I3000 T11781206 58006 TSNO
Loading
Personal Weather Stations






























Interactive Weather Map New forecast layout! Learn more

10-Day Weather Forecast

Advertisements
Track Severe Weather on mobile